Pagrindinis puslapis
METAR-TAF:

METAR-TAF

Oro uostai :

Chargas, Iranas

platuma: 29-15-34N, ilguma: 50-19-24E, Aukštis: 5 m

Dabartinis oras

Ataskaita buvo paskelbta 31 minutes, ne 03:00 UTC
Vėjas 4 kt iš Pietvakarių
Temperatūra 23°C
Drėgmė 83%
Slėgis 1009 hPa
Matomumas: 7000 m

METAR: OIBQ 190300Z 23004KT 7000 NSC 23/20 Q1009

Laikas: 08:01 (03:31 UTC)


TAF: trūkstamas

Orai ataskaitas ir orų prognozės (METAR, TAF).

turimą stotys yra geltonos ir raudonos taškus žemėlapyje.

Perkelti pele per norėdami pamatyti stoties vardą.

Tada spustelėkite, norėdami matyti oro stebėjimo ir prognozės.

Norėdami pakeisti žemėlapį: spustelėkite ant žalios mygtukų su juodo kryžiaus žemyn,; žalią mygtuką su brūkšneliu, jei norite nutolinti; arba žalių rodyklių gretimoms žemėlapius.


METAR-TAF: